sensor_id;sensor_type;location;lat;lon;timestamp;P1;durP1;ratioP1;P2;durP2;ratioP2
45734;SDS011;31446;49.632;8.328;2023-05-07T00:02:12;2.88;;;1.83;;
45734;SDS011;31446;49.632;8.328;2023-05-07T00:17:19;5.82;;;1.95;;
45734;SDS011;31446;49.632;8.328;2023-05-07T00:32:25;10.52;;;2.38;;
45734;SDS011;31446;49.632;8.328;2023-05-07T00:47:31;7.82;;;3.78;;
45734;SDS011;31446;49.632;8.328;2023-05-07T01:02:37;4.97;;;1.98;;
45734;SDS011;31446;49.632;8.328;2023-05-07T01:17:44;3.83;;;1.80;;
45734;SDS011;31446;49.632;8.328;2023-05-07T01:32:51;3.28;;;2.20;;
45734;SDS011;31446;49.632;8.328;2023-05-07T02:03:48;6.72;;;2.35;;
45734;SDS011;31446;49.632;8.328;2023-05-07T02:18:54;5.57;;;2.08;;
45734;SDS011;31446;49.632;8.328;2023-05-07T02:34:00;5.28;;;2.72;;
45734;SDS011;31446;49.632;8.328;2023-05-07T02:49:07;4.32;;;2.47;;
45734;SDS011;31446;49.632;8.328;2023-05-07T03:04:13;4.72;;;2.42;;
45734;SDS011;31446;49.632;8.328;2023-05-07T03:19:19;4.95;;;2.92;;
45734;SDS011;31446;49.632;8.328;2023-05-07T03:34:25;6.80;;;2.55;;
45734;SDS011;31446;49.632;8.328;2023-05-07T03:49:32;5.68;;;2.58;;
45734;SDS011;31446;49.632;8.328;2023-05-07T04:04:38;3.90;;;3.03;;
45734;SDS011;31446;49.632;8.328;2023-05-07T04:19:45;2.97;;;2.38;;
45734;SDS011;31446;49.632;8.328;2023-05-07T04:34:52;4.07;;;2.65;;
45734;SDS011;31446;49.632;8.328;2023-05-07T04:49:59;4.78;;;2.90;;
45734;SDS011;31446;49.632;8.328;2023-05-07T05:05:06;3.50;;;2.72;;
45734;SDS011;31446;49.632;8.328;2023-05-07T05:20:13;4.72;;;2.67;;
45734;SDS011;31446;49.632;8.328;2023-05-07T05:35:19;4.65;;;2.28;;
45734;SDS011;31446;49.632;8.328;2023-05-07T05:50:25;3.35;;;2.20;;
45734;SDS011;31446;49.632;8.328;2023-05-07T06:05:31;3.88;;;2.08;;
45734;SDS011;31446;49.632;8.328;2023-05-07T06:20:37;3.33;;;2.45;;
45734;SDS011;31446;49.632;8.328;2023-05-07T06:35:44;9.32;;;2.10;;
45734;SDS011;31446;49.632;8.328;2023-05-07T06:50:50;2.42;;;1.77;;
45734;SDS011;31446;49.632;8.328;2023-05-07T07:05:58;3.05;;;1.75;;
45734;SDS011;31446;49.632;8.328;2023-05-07T07:21:04;3.05;;;2.00;;
45734;SDS011;31446;49.632;8.328;2023-05-07T07:36:10;1.73;;;1.60;;
45734;SDS011;31446;49.632;8.328;2023-05-07T07:51:17;4.07;;;2.13;;
45734;SDS011;31446;49.632;8.328;2023-05-07T08:06:24;7.43;;;2.78;;
45734;SDS011;31446;49.632;8.328;2023-05-07T08:21:31;2.63;;;1.90;;
45734;SDS011;31446;49.632;8.328;2023-05-07T08:36:37;7.22;;;2.20;;
45734;SDS011;31446;49.632;8.328;2023-05-07T08:51:44;3.00;;;1.95;;
45734;SDS011;31446;49.632;8.328;2023-05-07T09:06:51;10.02;;;1.80;;
45734;SDS011;31446;49.632;8.328;2023-05-07T09:22:02;4.78;;;1.83;;
45734;SDS011;31446;49.632;8.328;2023-05-07T09:37:10;3.10;;;1.55;;
45734;SDS011;31446;49.632;8.328;2023-05-07T10:24:00;2.70;;;1.92;;
45734;SDS011;31446;49.632;8.328;2023-05-07T10:39:15;5.05;;;1.88;;
45734;SDS011;31446;49.632;8.328;2023-05-07T10:54:22;1.90;;;1.80;;
45734;SDS011;31446;49.632;8.328;2023-05-07T11:09:33;2.53;;;1.90;;
45734;SDS011;31446;49.632;8.328;2023-05-07T11:25:01;3.05;;;2.00;;
45734;SDS011;31446;49.632;8.328;2023-05-07T11:40:09;3.80;;;1.58;;
45734;SDS011;31446;49.632;8.328;2023-05-07T11:55:17;2.22;;;1.63;;
45734;SDS011;31446;49.632;8.328;2023-05-07T12:10:25;1.60;;;1.50;;
45734;SDS011;31446;49.632;8.328;2023-05-07T12:25:32;2.65;;;1.80;;
45734;SDS011;31446;49.632;8.328;2023-05-07T12:40:46;3.17;;;2.35;;
45734;SDS011;31446;49.632;8.328;2023-05-07T12:55:54;5.82;;;1.70;;
45734;SDS011;31446;49.632;8.328;2023-05-07T13:11:02;7.50;;;3.22;;
45734;SDS011;31446;49.632;8.328;2023-05-07T13:26:09;2.65;;;1.55;;
45734;SDS011;31446;49.632;8.328;2023-05-07T13:41:15;6.30;;;2.00;;
45734;SDS011;31446;49.632;8.328;2023-05-07T13:56:23;2.75;;;2.47;;
45734;SDS011;31446;49.632;8.328;2023-05-07T14:11:35;6.80;;;3.35;;
45734;SDS011;31446;49.632;8.328;2023-05-07T14:26:43;9.75;;;5.30;;
45734;SDS011;31446;49.632;8.328;2023-05-07T14:41:50;3.05;;;1.75;;
45734;SDS011;31446;49.632;8.328;2023-05-07T14:56:58;2.92;;;1.95;;
45734;SDS011;31446;49.632;8.328;2023-05-07T15:12:05;1.85;;;1.65;;
45734;SDS011;31446;49.632;8.328;2023-05-07T15:27:11;5.18;;;3.28;;
45734;SDS011;31446;49.632;8.328;2023-05-07T15:42:19;13.32;;;5.60;;
45734;SDS011;31446;49.632;8.328;2023-05-07T15:57:25;7.05;;;2.63;;
45734;SDS011;31446;49.632;8.328;2023-05-07T16:12:31;4.10;;;2.92;;
45734;SDS011;31446;49.632;8.328;2023-05-07T16:27:38;8.35;;;4.03;;
45734;SDS011;31446;49.632;8.328;2023-05-07T16:42:44;11.50;;;2.90;;
45734;SDS011;31446;49.632;8.328;2023-05-07T16:57:50;8.93;;;4.75;;
45734;SDS011;31446;49.632;8.328;2023-05-07T17:12:57;7.60;;;4.15;;
45734;SDS011;31446;49.632;8.328;2023-05-07T17:28:03;7.97;;;4.57;;
45734;SDS011;31446;49.632;8.328;2023-05-07T17:43:09;18.10;;;10.57;;
45734;SDS011;31446;49.632;8.328;2023-05-07T17:58:16;41.05;;;17.08;;
45734;SDS011;31446;49.632;8.328;2023-05-07T18:13:23;10.68;;;5.50;;
45734;SDS011;31446;49.632;8.328;2023-05-07T18:28:29;6.70;;;4.78;;
45734;SDS011;31446;49.632;8.328;2023-05-07T18:43:35;4.72;;;3.63;;
45734;SDS011;31446;49.632;8.328;2023-05-07T18:58:41;11.05;;;5.13;;
45734;SDS011;31446;49.632;8.328;2023-05-07T19:13:47;6.93;;;4.50;;
45734;SDS011;31446;49.632;8.328;2023-05-07T19:28:54;7.57;;;5.40;;
45734;SDS011;31446;49.632;8.328;2023-05-07T19:44:00;6.63;;;3.85;;
45734;SDS011;31446;49.632;8.328;2023-05-07T19:59:06;3.97;;;3.00;;
45734;SDS011;31446;49.632;8.328;2023-05-07T20:14:12;5.15;;;3.42;;
45734;SDS011;31446;49.632;8.328;2023-05-07T20:29:19;7.05;;;5.70;;
45734;SDS011;31446;49.632;8.328;2023-05-07T20:44:26;11.68;;;5.70;;
45734;SDS011;31446;49.632;8.328;2023-05-07T20:59:32;10.20;;;4.28;;
45734;SDS011;31446;49.632;8.328;2023-05-07T21:30:04;6.53;;;4.88;;
45734;SDS011;31446;49.632;8.328;2023-05-07T21:45:12;10.85;;;7.30;;
45734;SDS011;31446;49.632;8.328;2023-05-07T22:00:20;10.20;;;7.60;;
45734;SDS011;31446;49.632;8.328;2023-05-07T22:15:26;7.90;;;6.30;;
45734;SDS011;31446;49.632;8.328;2023-05-07T22:30:33;9.93;;;6.90;;
45734;SDS011;31446;49.632;8.328;2023-05-07T22:45:39;12.38;;;6.10;;
45734;SDS011;31446;49.632;8.328;2023-05-07T23:00:45;7.82;;;5.55;;
45734;SDS011;31446;49.632;8.328;2023-05-07T23:15:52;8.25;;;5.85;;
45734;SDS011;31446;49.632;8.328;2023-05-07T23:30:58;7.18;;;6.32;;
45734;SDS011;31446;49.632;8.328;2023-05-07T23:46:04;7.00;;;6.00;;
